Time;durP1;ratioP1;P1;durP2;ratioP2;P2;SDS_P1;SDS_P2;PMS_P1;PMS_P2;Temp;Humidity;BMP_temperature;BMP_pressure;BME280_temperature;BME280_humidity;BME280_pressure;Samples;Min_cycle;Max_cycle;Signal;HPM_P1;HPM_P2
2022/12/10 00:02:07;;;;;;;15.13;13.57;;;;;;;8.85;100.00;92196.41;5094197;28;20281;-71
2022/12/10 00:04:32;;;;;;;18.40;14.00;;;;;;;8.78;100.00;92169.94;5112574;28;20194;-71
2022/12/10 00:06:58;;;;;;;17.83;14.50;;;;;;;9.05;100.00;92217.00;5112224;28;20212;-71
2022/12/10 00:09:23;;;;;;;14.70;13.40;;;;;;;9.04;100.00;92200.59;5112133;28;20188;-71
2022/12/10 00:11:49;;;;;;;24.00;16.53;;;;;;;9.11;100.00;92205.47;5112066;28;20226;-72
2022/12/10 00:14:15;;;;;;;15.03;13.50;;;;;;;9.05;100.00;92180.53;5094383;28;20180;-70
2022/12/10 00:16:41;;;;;;;21.30;15.40;;;;;;;8.78;100.00;92180.34;5111199;28;20216;-71
2022/12/10 00:19:06;;;;;;;20.03;14.40;;;;;;;8.84;100.00;92180.00;5093616;28;20251;-71
2022/12/10 00:21:34;;;;;;;18.83;13.93;;;;;;;8.89;100.00;92195.56;5112147;28;20232;-71
2022/12/10 00:24:01;;;;;;;20.23;13.67;;;;;;;8.92;100.00;92184.59;5094504;28;21099;-70
2022/12/10 00:26:32;;;;;;;18.23;13.73;;;;;;;8.72;100.00;92182.22;5111551;28;20232;-70
2022/12/10 00:28:57;;;;;;;20.20;14.57;;;;;;;8.79;100.00;92185.28;5112162;28;20230;-69
2022/12/10 00:31:26;;;;;;;16.63;14.87;;;;;;;8.97;100.00;92189.75;5111662;28;20244;-71
2022/12/10 00:33:57;;;;;;;15.73;14.20;;;;;;;8.76;100.00;92185.06;5111441;28;20262;-70
2022/12/10 00:36:26;;;;;;;24.47;15.87;;;;;;;8.76;100.00;92185.84;5111781;28;20220;-71
2022/12/10 00:38:51;;;;;;;24.30;15.80;;;;;;;8.72;100.00;92171.03;5098547;28;20191;-71
2022/12/10 00:41:17;;;;;;;20.07;16.17;;;;;;;9.09;100.00;92197.16;5111796;28;20220;-71
2022/12/10 00:43:44;;;;;;;20.93;17.30;;;;;;;8.90;100.00;92193.75;5110934;28;20172;-70
2022/12/10 00:46:10;;;;;;;21.83;15.23;;;;;;;9.34;100.00;92191.63;5111617;28;20239;-71
2022/12/10 00:48:36;;;;;;;19.53;15.20;;;;;;;9.25;100.00;92188.09;5110375;28;20180;-71
2022/12/10 00:51:10;;;;;;;17.73;15.93;;;;;;;8.98;100.00;92180.13;5110622;28;20790;-71
2022/12/10 00:53:37;;;;;;;21.63;16.13;;;;;;;9.10;100.00;92211.72;5111018;28;20181;-70
2022/12/10 00:56:03;;;;;;;20.20;16.17;;;;;;;8.90;100.00;92183.34;5111323;28;20227;-71
2022/12/10 00:58:31;;;;;;;16.53;14.97;;;;;;;8.88;100.00;92194.03;5111718;28;20188;-71
2022/12/10 01:01:11;;;;;;;16.60;14.93;;;;;;;9.06;100.00;92208.91;5110847;28;20227;-72
2022/12/10 01:03:38;;;;;;;17.40;15.53;;;;;;;8.91;100.00;92216.88;5099390;28;20791;-71
2022/12/10 01:06:13;;;;;;;18.63;14.70;;;;;;;8.96;100.00;92197.84;5110497;28;20257;-71
2022/12/10 01:08:39;;;;;;;15.60;14.30;;;;;;;9.06;100.00;92197.69;5111525;28;20188;-70
2022/12/10 01:11:05;;;;;;;17.93;14.80;;;;;;;8.95;100.00;92191.09;5110643;28;20291;-70
2022/12/10 01:13:31;;;;;;;16.40;14.90;;;;;;;9.03;100.00;92198.25;5111442;28;20222;-72
2022/12/10 01:15:56;;;;;;;16.17;14.40;;;;;;;9.07;100.00;92179.22;5110650;28;20220;-71
2022/12/10 01:18:21;;;;;;;14.77;13.37;;;;;;;9.00;100.00;92183.97;5111130;28;20345;-71
2022/12/10 01:20:47;;;;;;;19.27;14.27;;;;;;;9.20;100.00;92181.13;5110383;28;20224;-71
2022/12/10 01:23:12;;;;;;;18.60;14.83;;;;;;;9.03;100.00;92170.41;5111245;28;20234;-72
2022/12/10 01:25:37;;;;;;;17.33;15.40;;;;;;;8.99;100.00;92168.63;5110478;28;20227;-71
2022/12/10 01:28:03;;;;;;;19.17;15.13;;;;;;;9.10;100.00;92189.06;5111514;28;20259;-71
2022/12/10 01:30:28;;;;;;;16.10;14.03;;;;;;;9.01;100.00;92158.72;5104157;28;20198;-70
2022/12/10 01:32:54;;;;;;;14.80;13.40;;;;;;;9.12;100.00;92157.56;5110875;28;20215;-70
2022/12/10 01:35:19;;;;;;;19.33;14.60;;;;;;;9.23;100.00;92172.75;5110207;28;20217;-71
2022/12/10 01:37:44;;;;;;;21.00;15.33;;;;;;;9.15;100.00;92154.38;5111024;28;20169;-73
2022/12/10 01:40:10;;;;;;;15.50;14.03;;;;;;;9.20;100.00;92155.06;5109055;28;20179;-72
2022/12/10 01:42:35;;;;;;;15.97;14.47;;;;;;;8.99;100.00;92127.00;5098241;28;20768;-71
2022/12/10 01:45:06;;;;;;;15.20;13.80;;;;;;;9.69;100.00;92175.50;5110514;28;20176;-71
2022/12/10 01:47:32;;;;;;;17.00;13.00;;;;;;;9.74;100.00;92144.91;5110134;28;20220;-71
2022/12/10 01:49:58;;;;;;;14.07;11.70;;;;;;;9.95;99.22;92153.19;5110636;28;20247;-71
2022/12/10 01:52:24;;;;;;;12.50;11.50;;;;;;;10.30;97.14;92165.69;5109948;28;20234;-71
2022/12/10 01:54:49;;;;;;;13.47;12.33;;;;;;;10.46;96.90;92164.34;5110364;28;20181;-68
2022/12/10 01:57:22;;;;;;;23.10;13.43;;;;;;;10.28;96.99;92156.59;5110329;28;20220;-67
2022/12/10 01:59:52;;;;;;;14.37;13.00;;;;;;;9.65;99.73;92167.47;5110602;28;20188;-69
2022/12/10 02:02:36;;;;;;;13.40;11.93;;;;;;;9.96;98.09;92164.41;5110003;28;20225;-68
2022/12/10 02:05:25;;;;;;;22.37;13.10;;;;;;;9.92;97.54;92168.63;5109471;28;20164;-68
2022/12/10 02:07:54;;;;;;;12.57;11.50;;;;;;;9.95;98.11;92168.06;5110022;28;20203;-68
2022/12/10 02:10:41;;;;;;;14.23;12.67;;;;;;;10.06;98.60;92182.50;5109837;28;20192;-69
2022/12/10 02:13:40;;;;;;;14.00;12.80;;;;;;;10.17;96.81;92176.88;5110431;28;20207;-68
2022/12/10 02:16:13;;;;;;;14.53;13.17;;;;;;;9.92;99.40;92179.84;5109793;28;20231;-69
2022/12/10 02:18:49;;;;;;;14.13;12.67;;;;;;;9.80;100.00;92193.31;5109652;28;20257;-68
2022/12/10 02:21:22;;;;;;;15.30;13.87;;;;;;;9.67;99.69;92182.81;5109288;28;20265;-69
2022/12/10 02:23:54;;;;;;;15.37;13.60;;;;;;;9.48;100.00;92158.59;5101208;28;20176;-70
2022/12/10 02:26:55;;;;;;;15.43;12.33;;;;;;;9.82;98.13;92166.97;5109304;28;20220;-68
2022/12/10 02:29:27;;;;;;;14.43;12.90;;;;;;;9.67;100.00;92154.94;5053527;28;20222;-70
2022/12/10 02:31:57;;;;;;;13.43;12.17;;;;;;;9.71;100.00;92147.34;5069306;28;20315;-70
2022/12/10 02:34:26;;;;;;;14.97;13.50;;;;;;;9.59;100.00;92158.19;5066157;28;20189;-69
2022/12/10 02:36:55;;;;;;;14.93;11.37;;;;;;;9.93;98.98;92160.53;5066474;28;20227;-72
2022/12/10 02:39:26;;;;;;;12.43;11.30;;;;;;;10.84;94.34;92138.84;5066518;28;20220;-69
2022/12/10 02:41:54;;;;;;;12.63;11.33;;;;;;;10.73;94.03;92146.13;5059406;28;20229;-69
2022/12/10 02:44:21;;;;;;;13.20;12.03;;;;;;;10.49;94.92;92150.72;5069544;28;20212;-70
2022/12/10 02:46:49;;;;;;;18.47;13.37;;;;;;;10.13;97.71;92139.38;5067902;28;20222;-69
2022/12/10 02:49:17;;;;;;;12.87;11.77;;;;;;;9.81;100.00;92147.16;5069365;28;20197;-69
2022/12/10 02:51:43;;;;;;;15.87;12.87;;;;;;;9.55;100.00;92141.56;5068706;28;20888;-69
2022/12/10 02:54:37;;;;;;;13.30;12.07;;;;;;;9.63;100.00;92142.75;5068554;28;20268;-71
2022/12/10 02:57:22;;;;;;;14.70;12.10;;;;;;;9.85;100.00;92144.78;5053852;28;20213;-70
2022/12/10 03:00:18;;;;;;;17.03;12.60;;;;;;;9.68;100.00;92147.91;5069771;28;20199;-73
2022/12/10 03:02:59;;;;;;;13.73;12.27;;;;;;;9.74;100.00;92142.31;5068882;28;20204;-66
2022/12/10 03:05:44;;;;;;;14.43;12.90;;;;;;;9.72;100.00;92162.69;5064606;28;20278;-69
2022/12/10 03:08:28;;;;;;;14.23;13.03;;;;;;;9.47;100.00;92144.81;5069527;28;20245;-68
2022/12/10 03:11:13;;;;;;;13.73;12.33;;;;;;;9.53;100.00;92135.88;5068058;28;20225;-68
2022/12/10 03:13:53;;;;;;;15.83;13.37;;;;;;;9.52;100.00;92143.97;5064356;28;20804;-68
2022/12/10 03:16:20;;;;;;;14.47;13.07;;;;;;;9.66;100.00;92150.00;5068303;28;20240;-70
2022/12/10 03:18:49;;;;;;;15.57;12.13;;;;;;;9.74;100.00;92144.91;5071448;28;20177;-69
2022/12/10 03:21:15;;;;;;;13.83;12.80;;;;;;;9.61;100.00;92144.88;5072475;28;20237;-69
2022/12/10 03:23:45;;;;;;;15.30;11.80;;;;;;;10.01;100.00;92154.66;5059143;28;20212;-69
2022/12/10 03:26:11;;;;;;;12.67;11.40;;;;;;;10.33;98.57;92154.69;5072827;28;20221;-69
2022/12/10 03:28:47;;;;;;;13.37;12.07;;;;;;;10.24;99.22;92148.56;5107070;28;20204;-69
2022/12/10 03:31:14;;;;;;;12.30;11.30;;;;;;;10.25;100.00;92141.50;5112926;28;20251;-69
2022/12/10 03:33:40;;;;;;;12.33;11.20;;;;;;;10.15;99.66;92133.88;5113338;28;20177;-69
2022/12/10 03:36:07;;;;;;;13.60;12.30;;;;;;;9.84;100.00;92144.00;5112517;28;20237;-68
2022/12/10 03:38:34;;;;;;;14.40;11.80;;;;;;;9.85;100.00;92152.59;5113404;28;20241;-68
2022/12/10 03:40:59;;;;;;;13.53;12.13;;;;;;;9.88;100.00;92152.81;5112328;28;20231;-71
2022/12/10 03:43:25;;;;;;;13.10;11.53;;;;;;;10.03;100.00;92149.94;5113445;28;20196;-69
2022/12/10 03:45:50;;;;;;;13.43;12.13;;;;;;;10.10;100.00;92141.78;5112244;28;20228;-69
2022/12/10 03:48:16;;;;;;;13.87;12.47;;;;;;;10.06;100.00;92122.50;5113431;28;20184;-69
2022/12/10 03:50:41;;;;;;;19.93;15.23;;;;;;;10.06;100.00;92120.69;5112329;28;20227;-68
2022/12/10 03:53:06;;;;;;;15.07;13.37;;;;;;;9.70;100.00;92072.78;5111416;28;20208;-70
2022/12/10 03:55:32;;;;;;;18.53;12.20;;;;;;;10.24;100.00;92122.47;5112184;28;20195;-68
2022/12/10 03:57:58;;;;;;;13.00;11.80;;;;;;;10.16;99.04;92125.00;5112149;28;20223;-68
2022/12/10 04:00:23;;;;;;;13.83;12.40;;;;;;;9.80;100.00;92122.16;5112742;28;20185;-69
2022/12/10 04:02:49;;;;;;;19.23;11.73;;;;;;;9.32;100.00;92110.41;5112716;28;20206;-69
2022/12/10 04:05:14;;;;;;;14.33;12.37;;;;;;;9.57;100.00;92105.56;5112602;28;20192;-69
2022/12/10 04:07:40;;;;;;;13.83;12.73;;;;;;;9.61;100.00;92095.34;5111752;28;20212;-70
2022/12/10 04:10:05;;;;;;;13.67;12.30;;;;;;;9.36;100.00;92090.53;5108578;28;20189;-69
2022/12/10 04:12:30;;;;;;;14.20;12.47;;;;;;;9.28;100.00;92098.97;5111742;28;20227;-69
2022/12/10 04:17:40;;;;;;;16.43;12.77;;;;;;;9.12;100.00;92092.44;5101009;28;20218;-69
2022/12/10 04:26:51;;;;;;;19.07;14.83;;;;;;;9.20;100.00;92099.59;5112222;28;20180;-69
2022/12/10 04:28:20;;;;;;;16.83;12.97;;;;;;;9.30;100.00;92104.69;5111914;28;20310;-68
2022/12/10 04:30:45;;;;;;;13.40;12.30;;;;;;;9.21;100.00;92103.78;5112069;28;20231;-69
2022/12/10 04:33:10;;;;;;;14.23;12.93;;;;;;;9.44;100.00;92142.78;5112047;28;20242;-69
2022/12/10 04:35:36;;;;;;;13.40;12.17;;;;;;;9.50;100.00;92135.66;5103226;28;20319;-69
2022/12/10 04:38:01;;;;;;;18.70;16.00;;;;;;;9.46;100.00;92155.53;5109379;28;20192;-70
2022/12/10 04:40:26;;;;;;;14.40;12.97;;;;;;;9.40;100.00;92154.81;5105625;28;20730;-69
2022/12/10 04:42:52;;;;;;;14.27;12.80;;;;;;;9.30;100.00;92141.16;5111835;28;20191;-69
2022/12/10 04:45:17;;;;;;;14.00;12.83;;;;;;;9.51;100.00;92148.41;5111790;28;20173;-69
2022/12/10 04:47:42;;;;;;;13.23;11.93;;;;;;;9.59;100.00;92145.16;5111655;28;20186;-69
2022/12/10 04:50:08;;;;;;;17.30;12.93;;;;;;;9.62;100.00;92154.22;5111286;28;20191;-70
2022/12/10 04:52:33;;;;;;;15.00;13.50;;;;;;;9.53;100.00;92146.28;5109203;28;20245;-69
2022/12/10 04:54:58;;;;;;;18.97;13.80;;;;;;;9.58;100.00;92140.22;5108553;28;20188;-69
2022/12/10 04:57:24;;;;;;;13.20;12.10;;;;;;;9.52;100.00;92143.97;5109921;28;20273;-69
2022/12/10 04:59:49;;;;;;;16.00;14.63;;;;;;;9.22;100.00;92097.50;5109148;28;20168;-68
2022/12/10 05:02:14;;;;;;;18.70;14.67;;;;;;;9.10;100.00;92110.19;5105187;28;20336;-69
2022/12/10 05:04:40;;;;;;;20.20;18.20;;;;;;;9.04;100.00;92132.88;5106329;28;20188;-68
2022/12/10 05:07:05;;;;;;;14.20;12.90;;;;;;;9.23;100.00;92122.50;5106521;28;20207;-68
2022/12/10 05:09:31;;;;;;;15.23;13.93;;;;;;;9.31;100.00;92133.06;5108747;28;20200;-71
2022/12/10 05:11:56;;;;;;;13.57;12.67;;;;;;;9.18;100.00;92131.13;5109287;28;20216;-71
2022/12/10 05:14:21;;;;;;;14.07;12.93;;;;;;;9.38;100.00;92106.66;5092614;28;20195;-70
2022/12/10 05:16:50;;;;;;;16.83;15.27;;;;;;;9.24;100.00;92124.84;5108851;28;20263;-71
2022/12/10 05:19:15;;;;;;;14.70;13.50;;;;;;;9.24;100.00;92121.44;5110421;28;20177;-71
2022/12/10 05:24:25;;;;;;;12.90;12.03;;;;;;;9.24;100.00;92116.22;5110217;28;20211;-69
2022/12/10 05:26:51;;;;;;;13.40;12.17;;;;;;;9.39;100.00;92108.19;5109229;28;20216;-70
2022/12/10 05:29:17;;;;;;;12.97;11.40;;;;;;;9.43;100.00;92114.41;5110622;28;20240;-71
2022/12/10 05:31:42;;;;;;;12.53;11.67;;;;;;;9.47;100.00;92123.97;5091465;28;20223;-72
2022/12/10 05:34:11;;;;;;;15.63;14.13;;;;;;;9.23;100.00;92114.69;5109570;28;20221;-70
2022/12/10 05:36:36;;;;;;;20.60;17.77;;;;;;;9.42;100.00;92123.25;5103044;28;20226;-72
2022/12/10 05:39:02;;;;;;;17.10;12.77;;;;;;;9.35;100.00;92121.00;5110166;28;20173;-72
2022/12/10 05:41:30;;;;;;;11.67;10.77;;;;;;;9.25;100.00;92122.97;5109096;28;20246;-71
2022/12/10 05:43:58;;;;;;;14.20;11.90;;;;;;;9.05;100.00;92123.25;5110601;28;20172;-72
2022/12/10 05:46:29;;;;;;;14.13;12.87;;;;;;;9.21;100.00;92137.63;5110436;28;20220;-71
2022/12/10 05:48:55;;;;;;;15.30;13.80;;;;;;;9.10;100.00;92128.41;5110648;28;20183;-71
2022/12/10 05:51:24;;;;;;;16.70;15.13;;;;;;;9.16;100.00;92143.69;5108945;28;20232;-73
2022/12/10 05:53:50;;;;;;;14.97;13.77;;;;;;;9.21;100.00;92141.00;5109517;28;20272;-71
2022/12/10 05:56:18;;;;;;;20.60;14.90;;;;;;;9.31;100.00;92133.06;5107579;28;20228;-72
2022/12/10 05:58:46;;;;;;;17.43;15.63;;;;;;;9.06;100.00;92143.81;5110130;28;20180;-71
2022/12/10 06:01:16;;;;;;;21.37;16.43;;;;;;;9.06;100.00;92148.22;5109466;28;20246;-73
2022/12/10 06:03:42;;;;;;;26.70;18.60;;;;;;;9.30;100.00;92151.56;5109472;28;20188;-74
2022/12/10 06:06:08;;;;;;;23.43;18.30;;;;;;;9.06;100.00;92156.03;5109064;28;20241;-74
2022/12/10 06:08:35;;;;;;;25.40;15.40;;;;;;;9.09;100.00;92150.31;5110144;28;20173;-74
2022/12/10 06:11:05;;;;;;;20.87;15.27;;;;;;;9.07;100.00;92140.16;5109622;28;20227;-74
2022/12/10 06:13:30;;;;;;;20.90;18.00;;;;;;;9.11;100.00;92148.16;5110200;28;20219;-74
2022/12/10 06:15:56;;;;;;;20.13;14.90;;;;;;;9.19;100.00;92150.94;5109643;28;20246;-74
2022/12/10 06:18:21;;;;;;;21.37;15.17;;;;;;;9.31;100.00;92153.09;5110129;28;20181;-74
2022/12/10 06:20:47;;;;;;;20.20;15.33;;;;;;;9.30;100.00;92152.34;5109529;28;20234;-73
2022/12/10 06:23:13;;;;;;;17.40;15.57;;;;;;;9.11;100.00;92148.97;5110189;28;20194;-74
2022/12/10 06:25:39;;;;;;;20.33;16.77;;;;;;;9.21;100.00;92153.25;5109748;28;20224;-74
2022/12/10 06:28:06;;;;;;;21.07;15.27;;;;;;;9.42;100.00;92151.91;5109212;28;20236;-74
2022/12/10 06:30:32;;;;;;;21.43;14.93;;;;;;;9.35;100.00;92151.50;5092231;28;20184;-72
2022/12/10 06:32:57;;;;;;;18.70;14.00;;;;;;;9.21;100.00;92129.81;5091582;28;20234;-71
2022/12/10 06:35:23;;;;;;;15.33;13.80;;;;;;;9.31;100.00;92129.66;5108808;28;20226;-71
2022/12/10 06:37:49;;;;;;;15.87;14.00;;;;;;;9.35;100.00;92130.66;5108704;28;20191;-72
2022/12/10 06:40:14;;;;;;;19.83;16.20;;;;;;;9.22;100.00;92119.13;5110073;28;20179;-72
2022/12/10 06:42:39;;;;;;;23.33;17.80;;;;;;;9.05;100.00;92086.81;5109134;28;20215;-71
2022/12/10 06:45:06;;;;;;;20.33;15.93;;;;;;;9.23;100.00;92083.44;5108628;28;20212;-72
2022/12/10 06:47:31;;;;;;;18.53;13.70;;;;;;;9.62;100.00;92118.53;5109224;28;20313;-72
2022/12/10 06:49:56;;;;;;;16.93;13.87;;;;;;;9.54;100.00;92126.22;5091732;28;20196;-72
2022/12/10 06:52:22;;;;;;;15.07;13.77;;;;;;;9.53;100.00;92138.47;5111791;28;20219;-72
2022/12/10 06:54:47;;;;;;;15.40;13.90;;;;;;;9.41;100.00;92152.97;5113707;28;20180;-72
2022/12/10 06:57:13;;;;;;;29.53;20.20;;;;;;;9.40;100.00;92141.03;5113551;28;20216;-72
2022/12/10 06:59:38;;;;;;;19.77;17.93;;;;;;;9.25;100.00;92149.81;5114050;28;20424;-72
2022/12/10 07:02:03;;;;;;;16.40;14.57;;;;;;;9.14;100.00;92148.38;5095618;28;20245;-72
2022/12/10 07:04:29;;;;;;;18.43;16.17;;;;;;;9.21;100.00;92142.84;5112616;28;20267;-72
2022/12/10 07:06:54;;;;;;;22.27;18.77;;;;;;;9.45;100.00;92153.94;5113162;28;20301;-71
2022/12/10 07:09:20;;;;;;;16.10;14.63;;;;;;;9.45;100.00;92149.53;5113856;28;20189;-71
2022/12/10 07:11:45;;;;;;;23.00;20.37;;;;;;;9.41;100.00;92145.16;5112331;28;20239;-72
2022/12/10 07:14:16;;;;;;;18.17;16.33;;;;;;;9.48;100.00;92135.16;5113743;28;20207;-72
2022/12/10 07:16:41;;;;;;;16.80;15.30;;;;;;;9.46;100.00;92150.31;5112760;28;20247;-71
2022/12/10 07:19:09;;;;;;;30.47;23.13;;;;;;;9.25;100.00;92139.38;5113283;28;20189;-74
2022/12/10 07:21:36;;;;;;;23.83;17.30;;;;;;;9.66;100.00;92150.75;5112092;28;20228;-75
2022/12/10 07:24:04;;;;;;;18.60;16.60;;;;;;;9.59;100.00;92124.31;5095264;28;20194;-74
2022/12/10 07:26:34;;;;;;;18.40;16.00;;;;;;;9.87;100.00;92135.59;5111881;28;20258;-74
2022/12/10 07:29:00;;;;;;;22.67;19.70;;;;;;;9.79;100.00;92133.63;5113705;28;20228;-73
2022/12/10 07:31:25;;;;;;;18.07;14.20;;;;;;;9.55;100.00;92132.97;5094430;28;20238;-74
2022/12/10 07:33:52;;;;;;;13.87;12.47;;;;;;;9.67;100.00;92115.06;5113301;28;20183;-74
2022/12/10 07:36:18;;;;;;;14.67;13.37;;;;;;;10.03;100.00;92123.09;5094559;28;20287;-72
2022/12/10 07:38:43;;;;;;;16.93;15.13;;;;;;;10.08;100.00;92112.59;5113501;28;20184;-71
2022/12/10 07:41:10;;;;;;;31.27;21.07;;;;;;;9.85;100.00;92106.44;5112429;28;20204;-72
2022/12/10 07:43:38;;;;;;;18.23;16.27;;;;;;;9.66;100.00;92116.13;5113121;28;20189;-72
2022/12/10 07:46:09;;;;;;;20.27;18.43;;;;;;;9.78;100.00;92138.09;5112682;28;20239;-71
2022/12/10 07:48:36;;;;;;;17.27;15.20;;;;;;;10.03;100.00;92134.28;5113164;28;20199;-72
2022/12/10 07:51:01;;;;;;;16.33;14.73;;;;;;;10.09;100.00;92117.53;5111447;28;20220;-70
2022/12/10 07:53:27;;;;;;;16.97;13.87;;;;;;;10.26;100.00;92128.19;5112879;28;20210;-72
2022/12/10 07:55:52;;;;;;;23.77;21.13;;;;;;;10.30;100.00;92128.41;5112274;28;20292;-71
2022/12/10 07:58:17;;;;;;;18.27;14.47;;;;;;;10.22;100.00;92134.28;5113247;28;20176;-71
2022/12/10 08:00:43;;;;;;;16.10;14.60;;;;;;;10.50;100.00;92126.19;5094957;28;20312;-72
2022/12/10 08:03:08;;;;;;;15.90;14.20;;;;;;;10.46;100.00;92114.03;5111762;28;20192;-72
2022/12/10 08:05:33;;;;;;;18.00;16.23;;;;;;;10.16;100.00;92089.25;5111431;28;20849;-71
2022/12/10 08:07:59;;;;;;;22.73;15.70;;;;;;;10.20;100.00;92097.25;5112392;28;20248;-73
2022/12/10 08:10:24;;;;;;;16.97;15.20;;;;;;;10.59;100.00;92103.56;5111893;28;20195;-72
2022/12/10 08:12:49;;;;;;;15.23;13.27;;;;;;;10.78;100.00;92082.59;5112690;28;20200;-72
2022/12/10 08:15:15;;;;;;;17.73;15.87;;;;;;;10.76;100.00;92095.94;5112303;28;20191;-72
2022/12/10 08:17:40;;;;;;;23.80;20.03;;;;;;;10.91;100.00;92085.16;5111982;28;20216;-72
2022/12/10 08:20:06;;;;;;;16.33;14.80;;;;;;;10.98;100.00;92072.50;5112211;28;20243;-73
2022/12/10 08:22:34;;;;;;;16.40;14.90;;;;;;;11.17;100.00;92086.16;5093108;28;20220;-72
2022/12/10 08:24:59;;;;;;;13.80;12.53;;;;;;;10.80;100.00;92080.47;5112119;28;20244;-72
2022/12/10 08:27:25;;;;;;;15.90;13.63;;;;;;;11.09;100.00;92101.78;5093943;28;20255;-72
2022/12/10 08:29:50;;;;;;;15.30;13.93;;;;;;;11.25;100.00;92088.09;5110580;28;20252;-72
2022/12/10 08:32:15;;;;;;;15.50;14.07;;;;;;;11.38;100.00;92088.38;5111898;28;20240;-72
2022/12/10 08:34:41;;;;;;;14.87;13.67;;;;;;;11.07;100.00;92081.19;5111140;28;20184;-73
2022/12/10 08:37:06;;;;;;;16.97;15.37;;;;;;;11.12;100.00;92077.69;5111232;28;20232;-73
2022/12/10 08:39:31;;;;;;;17.60;15.87;;;;;;;11.16;100.00;92048.06;5111913;28;20192;-72
2022/12/10 08:41:57;;;;;;;17.73;15.40;;;;;;;11.41;100.00;92079.94;5103572;28;20213;-71
2022/12/10 08:44:22;;;;;;;17.20;15.43;;;;;;;11.02;100.00;92070.84;5107223;28;20198;-71
2022/12/10 08:46:47;;;;;;;17.27;15.50;;;;;;;11.30;100.00;92080.16;5111412;28;20219;-72
2022/12/10 08:49:13;;;;;;;26.50;24.33;;;;;;;11.56;100.00;92066.50;5111532;28;20173;-72
2022/12/10 08:51:39;;;;;;;15.70;14.10;;;;;;;11.38;100.00;92071.59;5111026;28;20211;-72
2022/12/10 08:54:04;;;;;;;21.03;14.77;;;;;;;11.08;100.00;92061.81;5111379;28;20218;-73
2022/12/10 08:56:30;;;;;;;15.50;14.20;;;;;;;11.16;100.00;92058.50;5111439;28;20236;-72
2022/12/10 08:58:56;;;;;;;17.37;15.43;;;;;;;11.30;100.00;92064.47;5111752;28;20197;-71
2022/12/10 09:01:21;;;;;;;16.50;14.90;;;;;;;11.19;100.00;92078.06;5111123;28;20258;-72
2022/12/10 09:03:47;;;;;;;17.23;15.43;;;;;;;11.06;100.00;92063.97;5110856;28;20168;-73
2022/12/10 09:06:14;;;;;;;16.30;14.90;;;;;;;11.23;100.00;92042.44;5110829;28;20286;-72
2022/12/10 09:08:40;;;;;;;14.40;13.20;;;;;;;11.50;100.00;92041.56;5111275;28;20175;-71
2022/12/10 09:11:18;;;;;;;14.00;12.77;;;;;;;11.64;100.00;92047.53;5111206;28;20244;-71
2022/12/10 09:13:43;;;;;;;13.50;12.30;;;;;;;11.58;100.00;92049.44;5093411;28;20319;-72
2022/12/10 09:16:10;;;;;;;13.57;12.43;;;;;;;11.71;100.00;92048.66;5110789;28;20223;-70
2022/12/10 09:18:35;;;;;;;14.90;13.07;;;;;;;11.85;100.00;92040.72;5110438;28;20207;-72
2022/12/10 09:21:05;;;;;;;12.20;11.07;;;;;;;12.28;100.00;92024.16;5110394;28;20230;-72
2022/12/10 09:23:31;;;;;;;15.40;14.03;;;;;;;11.92;100.00;91999.22;5111035;28;20231;-72
2022/12/10 09:25:56;;;;;;;14.53;13.13;;;;;;;12.19;100.00;92043.50;5110757;28;20859;-73
2022/12/10 09:28:21;;;;;;;20.10;15.73;;;;;;;12.18;100.00;92058.44;5110427;28;20231;-73
2022/12/10 09:30:55;;;;;;;17.50;15.70;;;;;;;11.77;100.00;92042.22;5110920;28;20228;-73
2022/12/10 09:33:20;;;;;;;21.87;15.07;;;;;;;11.36;100.00;92031.91;5092665;28;20204;-72
2022/12/10 09:35:46;;;;;;;18.40;16.47;;;;;;;11.25;100.00;92025.38;5110099;28;20907;-71
2022/12/10 09:38:11;;;;;;;24.93;16.93;;;;;;;11.92;100.00;92013.06;5110976;28;20200;-70
2022/12/10 09:41:01;;;;;;;21.17;17.03;;;;;;;11.69;100.00;92029.13;5092338;28;20221;-72
2022/12/10 09:43:35;;;;;;;27.63;17.37;;;;;;;11.84;100.00;92026.13;5098443;28;20186;-72
2022/12/10 09:46:21;;;;;;;22.17;17.47;;;;;;;11.57;100.00;92018.38;5092247;28;20279;-71
2022/12/10 09:49:09;;;;;;;22.40;16.03;;;;;;;11.47;100.00;92018.63;5110836;28;20189;-71
2022/12/10 09:51:37;;;;;;;18.60;13.23;;;;;;;11.76;100.00;91998.84;5106137;28;20231;-71
2022/12/10 09:54:11;;;;;;;14.30;12.80;;;;;;;11.88;100.00;91999.06;5110589;28;20202;-72
2022/12/10 09:56:41;;;;;;;13.33;12.00;;;;;;;12.07;100.00;91998.81;5099334;28;20207;-71
2022/12/10 09:59:18;;;;;;;12.70;11.63;;;;;;;12.01;98.10;92016.50;5109730;28;20189;-70
2022/12/10 10:01:45;;;;;;;12.20;11.10;;;;;;;12.31;98.27;92009.72;5092344;28;20228;-71
2022/12/10 10:04:10;;;;;;;12.73;11.53;;;;;;;12.36;96.72;92002.47;5110293;28;20187;-72
2022/12/10 10:06:36;;;;;;;13.13;11.10;;;;;;;12.07;96.42;91962.19;5109590;28;20227;-72
2022/12/10 10:09:02;;;;;;;11.80;11.00;;;;;;;12.36;95.29;92006.94;5109211;28;20183;-72
2022/12/10 10:11:30;;;;;;;10.93;10.13;;;;;;;12.57;93.12;92013.16;5109955;28;20230;-72
2022/12/10 10:14:22;;;;;;;11.97;11.07;;;;;;;13.21;91.49;92007.13;5110162;28;20201;-72
2022/12/10 10:16:53;;;;;;;11.10;10.30;;;;;;;12.89;90.27;92000.44;5109466;28;20301;-72
2022/12/10 10:19:27;;;;;;;11.07;10.07;;;;;;;12.88;91.71;91998.13;5110289;28;20180;-72
2022/12/10 10:21:53;;;;;;;11.07;10.47;;;;;;;13.15;90.76;91987.38;5107665;28;20307;-71
2022/12/10 10:24:23;;;;;;;12.37;11.37;;;;;;;12.63;94.44;91996.22;5110112;28;20171;-73
2022/12/10 10:26:52;;;;;;;12.50;11.53;;;;;;;12.72;92.56;92010.09;5108909;28;20287;-71
2022/12/10 10:29:21;;;;;;;11.57;10.37;;;;;;;12.39;93.84;92001.88;5110514;28;20184;-71
2022/12/10 10:31:47;;;;;;;12.87;11.77;;;;;;;12.74;93.21;91997.50;5108330;28;20224;-71
2022/12/10 10:34:17;;;;;;;11.83;10.93;;;;;;;13.09;91.66;92004.31;5110193;28;20184;-72
2022/12/10 10:36:43;;;;;;;11.60;10.70;;;;;;;13.37;90.11;91994.31;5106859;28;20215;-72
2022/12/10 10:39:18;;;;;;;11.23;10.33;;;;;;;13.23;87.82;91967.50;5110075;28;20214;-72
2022/12/10 10:41:48;;;;;;;11.20;10.50;;;;;;;13.49;86.64;91965.59;5108570;28;20226;-73
2022/12/10 10:44:16;;;;;;;12.43;11.30;;;;;;;13.09;88.88;91957.16;5108484;28;20176;-72
2022/12/10 10:46:45;;;;;;;11.07;10.33;;;;;;;13.51;87.27;91972.06;5109334;28;20296;-70
2022/12/10 10:49:18;;;;;;;12.17;11.13;;;;;;;13.90;86.04;91963.19;5092040;28;20188;-70
2022/12/10 10:51:45;;;;;;;11.10;10.33;;;;;;;14.20;84.11;91976.06;5089382;28;20212;-69
2022/12/10 10:54:10;;;;;;;11.73;10.93;;;;;;;14.40;83.09;91967.50;5109227;28;20175;-70
2022/12/10 10:56:43;;;;;;;11.13;10.20;;;;;;;14.29;83.04;91962.91;5098042;28;20222;-70
2022/12/10 10:59:17;;;;;;;13.07;11.97;;;;;;;14.17;81.76;91960.94;5109776;28;20252;-69
2022/12/10 11:01:54;;;;;;;13.43;10.10;;;;;;;14.33;81.10;91948.06;5109402;28;20215;-70
2022/12/10 11:04:47;;;;;;;11.50;10.17;;;;;;;13.93;86.69;91954.72;5109506;28;20191;-69
2022/12/10 11:07:19;;;;;;;10.50;9.90;;;;;;;14.05;84.95;91936.44;5105612;28;20231;-70
2022/12/10 11:09:44;;;;;;;10.87;9.93;;;;;;;14.25;83.19;91935.75;5109542;28;20183;-70
2022/12/10 11:12:28;;;;;;;10.20;9.67;;;;;;;13.93;83.71;91926.59;5108932;28;20220;-70
2022/12/10 11:14:54;;;;;;;11.07;10.27;;;;;;;14.09;82.25;91927.63;5109418;28;20188;-70
2022/12/10 11:17:22;;;;;;;10.80;10.00;;;;;;;14.01;82.04;91914.50;5109110;28;20231;-70
2022/12/10 11:20:16;;;;;;;11.57;10.33;;;;;;;14.30;82.30;91896.19;5108613;28;20169;-70
2022/12/10 11:23:01;;;;;;;12.33;11.13;;;;;;;13.91;84.87;91907.78;5100057;28;20230;-71
2022/12/10 11:25:47;;;;;;;17.73;11.40;;;;;;;14.14;85.88;91905.66;5088078;28;20184;-71
2022/12/10 11:28:38;;;;;;;14.37;12.67;;;;;;;14.35;84.46;91896.00;5105392;28;20232;-70
2022/12/10 11:31:18;;;;;;;18.17;13.17;;;;;;;13.97;88.75;91896.03;5096726;28;20239;-70
2022/12/10 11:33:57;;;;;;;15.83;14.10;;;;;;;14.25;88.00;91910.28;5097642;28;20208;-71
2022/12/10 11:36:49;;;;;;;18.83;14.83;;;;;;;13.60;91.18;91903.88;5105409;28;20250;-70